Paoli, Pennsylvania
Current Conditions -  °F | °C
As of 10:55 PM on Thursday 18 Dec 2014 (Local Time) from KLOM Reporting Station
Overcast Overcast  
Wind Chill: 32°   Ceiling: 3500
Heat Index: 36°   Visibility: 10mi
Dew Point: 28°   Wind: 5mph
Humidity: 75%   Direction: 280°W
Pressure: 30.02"   Gusts: NA
Location:  40.04°N, 75.48°W
Report Text: KLOM 190355Z AUTO 28004KT 10SM OVC035 02/M02 A3002 RMK AO1
Loading
Personal Weather Stations






























Interactive Weather Map New forecast layout! Learn more

10-Day Weather Forecast

Advertisements
Track Severe Weather on mobile